sensor_id;sensor_type;location;lat;lon;timestamp;pressure;altitude;pressure_sealevel;temperature;humidity
38303;BME280;24103;42.454;27.400;2023-06-22T00:00:48;100834.22;;;20.82;100.00
38303;BME280;24103;42.454;27.400;2023-06-22T00:03:14;100833.00;;;20.76;100.00
38303;BME280;24103;42.454;27.400;2023-06-22T00:05:39;100842.66;;;20.69;100.00
38303;BME280;24103;42.454;27.400;2023-06-22T00:08:05;100836.41;;;20.59;100.00
38303;BME280;24103;42.454;27.400;2023-06-22T00:10:31;100831.13;;;20.49;100.00
38303;BME280;24103;42.454;27.400;2023-06-22T00:12:56;100830.81;;;20.42;100.00
38303;BME280;24103;42.454;27.400;2023-06-22T00:15:22;100828.75;;;20.36;100.00
38303;BME280;24103;42.454;27.400;2023-06-22T00:17:49;100818.19;;;20.25;100.00
38303;BME280;24103;42.454;27.400;2023-06-22T00:20:15;100830.19;;;20.21;100.00
38303;BME280;24103;42.454;27.400;2023-06-22T00:22:43;100832.03;;;20.11;100.00
38303;BME280;24103;42.454;27.400;2023-06-22T00:25:09;100834.03;;;20.09;100.00
38303;BME280;24103;42.454;27.400;2023-06-22T00:27:35;100837.84;;;19.96;100.00
38303;BME280;24103;42.454;27.400;2023-06-22T00:30:01;100847.31;;;19.91;100.00
38303;BME280;24103;42.454;27.400;2023-06-22T00:32:26;100853.78;;;19.88;100.00
38303;BME280;24103;42.454;27.400;2023-06-22T00:34:52;100861.56;;;19.91;100.00
38303;BME280;24103;42.454;27.400;2023-06-22T00:37:18;100863.13;;;19.84;100.00
38303;BME280;24103;42.454;27.400;2023-06-22T00:39:43;100857.34;;;19.79;100.00
38303;BME280;24103;42.454;27.400;2023-06-22T00:42:09;100865.22;;;19.70;100.00
38303;BME280;24103;42.454;27.400;2023-06-22T00:44:35;100865.06;;;19.62;100.00
38303;BME280;24103;42.454;27.400;2023-06-22T00:47:02;100875.22;;;19.59;100.00
38303;BME280;24103;42.454;27.400;2023-06-22T00:49:28;100870.84;;;19.58;100.00
38303;BME280;24103;42.454;27.400;2023-06-22T00:51:54;100866.16;;;19.50;100.00
38303;BME280;24103;42.454;27.400;2023-06-22T00:54:20;100872.66;;;19.47;100.00
38303;BME280;24103;42.454;27.400;2023-06-22T00:56:58;100870.53;;;19.41;100.00
38303;BME280;24103;42.454;27.400;2023-06-22T00:59:25;100874.63;;;19.36;100.00
38303;BME280;24103;42.454;27.400;2023-06-22T01:01:51;100880.81;;;19.36;100.00
38303;BME280;24103;42.454;27.400;2023-06-22T01:04:17;100863.03;;;19.25;100.00
38303;BME280;24103;42.454;27.400;2023-06-22T01:09:48;100872.91;;;19.34;100.00
38303;BME280;24103;42.454;27.400;2023-06-22T01:12:15;100880.25;;;19.32;100.00
38303;BME280;24103;42.454;27.400;2023-06-22T01:14:56;100872.34;;;19.31;100.00
38303;BME280;24103;42.454;27.400;2023-06-22T01:17:24;100870.25;;;19.34;100.00
38303;BME280;24103;42.454;27.400;2023-06-22T01:19:54;100881.25;;;19.41;100.00
38303;BME280;24103;42.454;27.400;2023-06-22T01:22:23;100871.53;;;19.40;100.00
38303;BME280;24103;42.454;27.400;2023-06-22T01:25:12;100877.59;;;19.42;100.00
38303;BME280;24103;42.454;27.400;2023-06-22T01:30:18;100865.19;;;19.61;100.00
38303;BME280;24103;42.454;27.400;2023-06-22T01:32:44;100868.59;;;19.73;100.00
38303;BME280;24103;42.454;27.400;2023-06-22T01:35:12;100864.06;;;19.73;100.00
38303;BME280;24103;42.454;27.400;2023-06-22T01:37:38;100867.63;;;19.74;100.00
38303;BME280;24103;42.454;27.400;2023-06-22T01:40:05;100864.25;;;19.72;100.00
38303;BME280;24103;42.454;27.400;2023-06-22T01:42:32;100859.56;;;19.64;100.00
38303;BME280;24103;42.454;27.400;2023-06-22T01:44:59;100865.06;;;19.52;100.00
38303;BME280;24103;42.454;27.400;2023-06-22T01:47:26;100874.34;;;19.48;100.00
38303;BME280;24103;42.454;27.400;2023-06-22T01:49:53;100891.16;;;19.50;100.00
38303;BME280;24103;42.454;27.400;2023-06-22T01:52:19;100889.31;;;19.51;100.00
38303;BME280;24103;42.454;27.400;2023-06-22T01:54:46;100892.81;;;19.51;100.00
38303;BME280;24103;42.454;27.400;2023-06-22T01:57:12;100881.28;;;19.51;100.00
38303;BME280;24103;42.454;27.400;2023-06-22T02:02:10;100871.25;;;19.53;100.00
38303;BME280;24103;42.454;27.400;2023-06-22T02:04:48;100858.28;;;19.39;100.00
38303;BME280;24103;42.454;27.400;2023-06-22T02:07:15;100881.84;;;19.55;100.00
38303;BME280;24103;42.454;27.400;2023-06-22T02:09:44;100887.75;;;19.58;100.00
38303;BME280;24103;42.454;27.400;2023-06-22T02:12:17;100871.53;;;19.50;100.00
38303;BME280;24103;42.454;27.400;2023-06-22T02:14:45;100884.22;;;19.48;100.00
38303;BME280;24103;42.454;27.400;2023-06-22T02:17:11;100882.56;;;19.47;100.00
38303;BME280;24103;42.454;27.400;2023-06-22T02:19:38;100867.13;;;19.29;100.00
38303;BME280;24103;42.454;27.400;2023-06-22T02:22:06;100875.56;;;19.25;100.00
38303;BME280;24103;42.454;27.400;2023-06-22T02:24:31;100877.56;;;19.23;100.00
38303;BME280;24103;42.454;27.400;2023-06-22T02:26:59;100881.59;;;19.17;100.00
38303;BME280;24103;42.454;27.400;2023-06-22T02:29:25;100878.19;;;19.05;100.00
38303;BME280;24103;42.454;27.400;2023-06-22T02:31:52;100881.00;;;19.04;100.00
38303;BME280;24103;42.454;27.400;2023-06-22T02:34:17;100882.31;;;19.09;100.00
38303;BME280;24103;42.454;27.400;2023-06-22T02:36:47;100885.16;;;19.18;100.00
38303;BME280;24103;42.454;27.400;2023-06-22T02:39:25;100879.78;;;19.18;100.00
38303;BME280;24103;42.454;27.400;2023-06-22T02:41:52;100893.38;;;19.36;100.00
38303;BME280;24103;42.454;27.400;2023-06-22T02:44:18;100899.97;;;19.31;100.00
38303;BME280;24103;42.454;27.400;2023-06-22T02:46:45;100900.41;;;19.37;100.00
38303;BME280;24103;42.454;27.400;2023-06-22T02:49:11;100904.41;;;19.42;100.00
38303;BME280;24103;42.454;27.400;2023-06-22T02:51:39;100905.09;;;19.44;100.00
38303;BME280;24103;42.454;27.400;2023-06-22T02:54:05;100890.59;;;19.47;100.00
38303;BME280;24103;42.454;27.400;2023-06-22T02:56:31;100889.31;;;19.51;100.00
38303;BME280;24103;42.454;27.400;2023-06-22T02:58:57;100886.34;;;19.54;100.00
38303;BME280;24103;42.454;27.400;2023-06-22T03:01:27;100894.31;;;19.75;100.00
38303;BME280;24103;42.454;27.400;2023-06-22T03:03:53;100892.06;;;19.90;100.00
38303;BME280;24103;42.454;27.400;2023-06-22T03:06:20;100897.38;;;20.29;100.00
38303;BME280;24103;42.454;27.400;2023-06-22T03:08:51;100896.56;;;20.86;100.00
38303;BME280;24103;42.454;27.400;2023-06-22T03:11:17;100908.47;;;21.66;100.00
38303;BME280;24103;42.454;27.400;2023-06-22T03:13:43;100899.13;;;22.51;100.00
38303;BME280;24103;42.454;27.400;2023-06-22T03:16:09;100886.53;;;23.20;100.00
38303;BME280;24103;42.454;27.400;2023-06-22T03:18:34;100887.38;;;23.88;100.00
38303;BME280;24103;42.454;27.400;2023-06-22T03:21:00;100887.38;;;23.96;100.00
38303;BME280;24103;42.454;27.400;2023-06-22T03:23:27;100884.78;;;23.62;100.00
38303;BME280;24103;42.454;27.400;2023-06-22T03:25:53;100879.31;;;23.29;100.00
38303;BME280;24103;42.454;27.400;2023-06-22T03:28:21;100875.38;;;23.07;100.00
38303;BME280;24103;42.454;27.400;2023-06-22T03:30:46;100890.09;;;22.94;100.00
38303;BME280;24103;42.454;27.400;2023-06-22T03:33:12;100906.00;;;22.79;100.00
38303;BME280;24103;42.454;27.400;2023-06-22T03:35:37;100920.63;;;22.69;100.00
38303;BME280;24103;42.454;27.400;2023-06-22T03:38:03;100923.47;;;22.67;100.00
38303;BME280;24103;42.454;27.400;2023-06-22T03:40:29;100920.94;;;22.66;100.00
38303;BME280;24103;42.454;27.400;2023-06-22T03:42:55;100903.94;;;22.73;100.00
38303;BME280;24103;42.454;27.400;2023-06-22T03:45:20;100918.03;;;23.28;100.00
38303;BME280;24103;42.454;27.400;2023-06-22T03:47:46;100906.59;;;24.01;100.00
38303;BME280;24103;42.454;27.400;2023-06-22T03:50:11;100898.81;;;24.47;100.00
38303;BME280;24103;42.454;27.400;2023-06-22T03:52:37;100903.22;;;25.52;100.00
38303;BME280;24103;42.454;27.400;2023-06-22T03:55:03;100882.88;;;26.26;95.97
38303;BME280;24103;42.454;27.400;2023-06-22T03:57:29;100864.47;;;27.41;89.79
38303;BME280;24103;42.454;27.400;2023-06-22T03:59:56;100864.19;;;28.92;78.39
38303;BME280;24103;42.454;27.400;2023-06-22T04:02:22;100850.47;;;30.42;64.97
38303;BME280;24103;42.454;27.400;2023-06-22T04:04:47;100852.69;;;30.72;60.27
38303;BME280;24103;42.454;27.400;2023-06-22T04:07:13;100834.47;;;31.56;53.73
38303;BME280;24103;42.454;27.400;2023-06-22T04:09:38;100823.47;;;32.38;50.91
38303;BME280;24103;42.454;27.400;2023-06-22T04:12:04;100818.16;;;32.99;47.94
38303;BME280;24103;42.454;27.400;2023-06-22T04:14:30;100814.38;;;34.43;43.99
38303;BME280;24103;42.454;27.400;2023-06-22T04:16:55;100813.47;;;34.26;42.67
38303;BME280;24103;42.454;27.400;2023-06-22T04:19:21;100809.13;;;34.06;42.12
38303;BME280;24103;42.454;27.400;2023-06-22T04:21:47;100816.56;;;34.29;42.07
38303;BME280;24103;42.454;27.400;2023-06-22T04:24:14;100800.56;;;35.82;39.05
38303;BME280;24103;42.454;27.400;2023-06-22T04:26:40;100782.31;;;36.98;36.33
38303;BME280;24103;42.454;27.400;2023-06-22T04:29:07;100788.91;;;38.37;34.42
38303;BME280;24103;42.454;27.400;2023-06-22T04:31:34;100780.03;;;40.16;31.78
38303;BME280;24103;42.454;27.400;2023-06-22T04:34:04;100770.97;;;41.79;29.25
38303;BME280;24103;42.454;27.400;2023-06-22T04:36:37;100772.59;;;42.96;28.13
38303;BME280;24103;42.454;27.400;2023-06-22T04:39:10;100763.03;;;44.01;26.21
38303;BME280;24103;42.454;27.400;2023-06-22T04:41:37;100769.28;;;44.62;25.02
38303;BME280;24103;42.454;27.400;2023-06-22T04:44:17;100780.53;;;44.15;24.98
38303;BME280;24103;42.454;27.400;2023-06-22T04:47:00;100796.97;;;43.56;25.45
38303;BME280;24103;42.454;27.400;2023-06-22T04:49:28;100784.97;;;44.58;24.14
38303;BME280;24103;42.454;27.400;2023-06-22T04:52:05;100775.91;;;44.25;24.47
38303;BME280;24103;42.454;27.400;2023-06-22T04:54:31;100786.47;;;45.15;23.51
38303;BME280;24103;42.454;27.400;2023-06-22T04:57:05;100770.16;;;46.25;22.68
38303;BME280;24103;42.454;27.400;2023-06-22T04:59:35;100788.78;;;47.52;21.53
38303;BME280;24103;42.454;27.400;2023-06-22T05:02:02;100763.72;;;48.32;19.89
38303;BME280;24103;42.454;27.400;2023-06-22T05:04:29;100765.72;;;48.32;20.24
38303;BME280;24103;42.454;27.400;2023-06-22T05:06:57;100765.81;;;49.07;19.52
38303;BME280;24103;42.454;27.400;2023-06-22T05:09:22;100767.34;;;48.42;19.85
38303;BME280;24103;42.454;27.400;2023-06-22T05:11:48;100779.09;;;46.53;21.08
38303;BME280;24103;42.454;27.400;2023-06-22T05:14:17;100786.84;;;46.82;21.19
38303;BME280;24103;42.454;27.400;2023-06-22T05:16:44;100770.28;;;48.66;19.50
38303;BME280;24103;42.454;27.400;2023-06-22T05:19:10;100751.94;;;49.82;18.78
38303;BME280;24103;42.454;27.400;2023-06-22T05:21:36;100758.81;;;50.86;17.46
38303;BME280;24103;42.454;27.400;2023-06-22T05:24:01;100755.91;;;51.11;17.71
38303;BME280;24103;42.454;27.400;2023-06-22T05:26:32;100757.78;;;51.35;17.25
38303;BME280;24103;42.454;27.400;2023-06-22T05:28:59;100758.03;;;51.46;16.63
38303;BME280;24103;42.454;27.400;2023-06-22T05:31:24;100760.06;;;51.46;16.81
38303;BME280;24103;42.454;27.400;2023-06-22T05:33:53;100754.56;;;51.21;17.22
38303;BME280;24103;42.454;27.400;2023-06-22T05:36:18;100752.16;;;51.07;16.99
38303;BME280;24103;42.454;27.400;2023-06-22T05:38:50;100761.88;;;50.81;17.18
38303;BME280;24103;42.454;27.400;2023-06-22T05:41:16;100769.88;;;50.79;17.60
38303;BME280;24103;42.454;27.400;2023-06-22T05:43:41;100764.69;;;50.81;17.52
38303;BME280;24103;42.454;27.400;2023-06-22T05:46:07;100770.06;;;50.86;17.22
38303;BME280;24103;42.454;27.400;2023-06-22T05:48:32;100779.47;;;51.06;17.47
38303;BME280;24103;42.454;27.400;2023-06-22T05:50:58;100771.13;;;51.10;16.98
38303;BME280;24103;42.454;27.400;2023-06-22T05:53:24;100778.25;;;51.20;17.06
38303;BME280;24103;42.454;27.400;2023-06-22T05:55:49;100782.75;;;51.37;16.87
38303;BME280;24103;42.454;27.400;2023-06-22T05:58:15;100782.19;;;51.31;16.83
38303;BME280;24103;42.454;27.400;2023-06-22T06:00:41;100780.38;;;50.05;17.39
38303;BME280;24103;42.454;27.400;2023-06-22T06:03:07;100796.13;;;47.83;19.47
38303;BME280;24103;42.454;27.400;2023-06-22T06:05:33;100802.28;;;45.73;21.46
38303;BME280;24103;42.454;27.400;2023-06-22T06:08:00;100805.59;;;44.02;23.29
38303;BME280;24103;42.454;27.400;2023-06-22T06:10:26;100812.09;;;43.64;23.99
38303;BME280;24103;42.454;27.400;2023-06-22T06:12:52;100811.91;;;44.35;23.61
38303;BME280;24103;42.454;27.400;2023-06-22T06:15:18;100810.88;;;44.59;23.90
38303;BME280;24103;42.454;27.400;2023-06-22T06:18:02;100812.84;;;46.57;22.42
38303;BME280;24103;42.454;27.400;2023-06-22T06:20:31;100799.13;;;48.67;19.92
38303;BME280;24103;42.454;27.400;2023-06-22T06:22:56;100798.91;;;50.43;18.73
38303;BME280;24103;42.454;27.400;2023-06-22T06:25:23;100787.53;;;51.96;17.74
38303;BME280;24103;42.454;27.400;2023-06-22T06:27:50;100782.91;;;53.60;15.89
38303;BME280;24103;42.454;27.400;2023-06-22T06:30:18;100775.16;;;54.07;15.74
38303;BME280;24103;42.454;27.400;2023-06-22T06:32:45;100773.09;;;54.92;14.56
38303;BME280;24103;42.454;27.400;2023-06-22T06:35:12;100769.94;;;55.38;14.41
38303;BME280;24103;42.454;27.400;2023-06-22T06:37:40;100779.75;;;55.51;14.59
38303;BME280;24103;42.454;27.400;2023-06-22T06:40:07;100776.03;;;55.92;13.96
38303;BME280;24103;42.454;27.400;2023-06-22T06:42:39;100766.81;;;56.97;13.16
38303;BME280;24103;42.454;27.400;2023-06-22T06:45:07;100747.38;;;57.07;11.65
38303;BME280;24103;42.454;27.400;2023-06-22T06:47:33;100749.72;;;56.76;10.94
38303;BME280;24103;42.454;27.400;2023-06-22T06:49:59;100754.84;;;56.38;11.16
38303;BME280;24103;42.454;27.400;2023-06-22T06:52:25;100748.97;;;56.02;11.00
38303;BME280;24103;42.454;27.400;2023-06-22T06:54:50;100750.47;;;54.92;11.67
38303;BME280;24103;42.454;27.400;2023-06-22T06:57:18;100752.31;;;54.20;11.99
38303;BME280;24103;42.454;27.400;2023-06-22T06:59:43;100753.56;;;54.86;12.22
38303;BME280;24103;42.454;27.400;2023-06-22T07:02:09;100747.22;;;54.02;12.07
38303;BME280;24103;42.454;27.400;2023-06-22T07:04:34;100749.19;;;52.27;13.17
38303;BME280;24103;42.454;27.400;2023-06-22T07:07:01;100761.31;;;51.96;13.58
38303;BME280;24103;42.454;27.400;2023-06-22T07:09:27;100760.41;;;52.08;13.30
38303;BME280;24103;42.454;27.400;2023-06-22T07:11:53;100757.34;;;54.30;12.07
38303;BME280;24103;42.454;27.400;2023-06-22T07:14:36;100745.91;;;54.53;11.46
38303;BME280;24103;42.454;27.400;2023-06-22T07:17:01;100758.28;;;54.41;11.44
38303;BME280;24103;42.454;27.400;2023-06-22T07:19:28;100755.78;;;51.36;12.90
38303;BME280;24103;42.454;27.400;2023-06-22T07:21:54;100764.09;;;49.61;14.35
38303;BME280;24103;42.454;27.400;2023-06-22T07:24:21;100770.75;;;48.68;15.31
38303;BME280;24103;42.454;27.400;2023-06-22T07:26:47;100770.00;;;47.99;15.70
38303;BME280;24103;42.454;27.400;2023-06-22T07:29:16;100772.06;;;48.50;15.44
38303;BME280;24103;42.454;27.400;2023-06-22T07:31:42;100771.34;;;49.50;15.39
38303;BME280;24103;42.454;27.400;2023-06-22T07:37:29;100776.41;;;51.88;14.12
38303;BME280;24103;42.454;27.400;2023-06-22T07:39:55;100769.16;;;51.11;14.18
38303;BME280;24103;42.454;27.400;2023-06-22T07:42:25;100777.56;;;52.19;14.04
38303;BME280;24103;42.454;27.400;2023-06-22T07:44:50;100782.19;;;52.27;13.77
38303;BME280;24103;42.454;27.400;2023-06-22T07:47:16;100769.78;;;52.86;13.26
38303;BME280;24103;42.454;27.400;2023-06-22T07:49:44;100778.03;;;49.57;15.28
38303;BME280;24103;42.454;27.400;2023-06-22T07:52:10;100774.69;;;45.72;17.93
38303;BME280;24103;42.454;27.400;2023-06-22T07:54:36;100776.97;;;44.79;19.06
38303;BME280;24103;42.454;27.400;2023-06-22T07:57:02;100777.72;;;46.24;18.35
38303;BME280;24103;42.454;27.400;2023-06-22T07:59:27;100781.19;;;47.99;16.93
38303;BME280;24103;42.454;27.400;2023-06-22T08:01:54;100774.91;;;48.41;16.28
38303;BME280;24103;42.454;27.400;2023-06-22T08:04:21;100767.06;;;48.98;15.69
38303;BME280;24103;42.454;27.400;2023-06-22T08:06:46;100768.25;;;49.42;15.74
38303;BME280;24103;42.454;27.400;2023-06-22T08:09:12;100763.91;;;50.28;14.90
38303;BME280;24103;42.454;27.400;2023-06-22T08:11:37;100771.75;;;50.22;14.76
38303;BME280;24103;42.454;27.400;2023-06-22T08:14:04;100762.13;;;49.16;15.42
38303;BME280;24103;42.454;27.400;2023-06-22T08:16:30;100773.47;;;48.98;15.70
38303;BME280;24103;42.454;27.400;2023-06-22T08:18:56;100761.06;;;48.45;16.28
38303;BME280;24103;42.454;27.400;2023-06-22T08:21:22;100766.81;;;47.06;17.57
38303;BME280;24103;42.454;27.400;2023-06-22T08:23:48;100779.31;;;45.00;19.01
38303;BME280;24103;42.454;27.400;2023-06-22T08:26:15;100792.09;;;42.53;20.48
38303;BME280;24103;42.454;27.400;2023-06-22T08:28:41;100778.69;;;39.88;23.06
38303;BME280;24103;42.454;27.400;2023-06-22T08:35:23;100796.53;;;37.17;26.71
38303;BME280;24103;42.454;27.400;2023-06-22T08:38:09;100796.19;;;36.20;27.90
38303;BME280;24103;42.454;27.400;2023-06-22T08:40:36;100809.09;;;35.35;29.03
38303;BME280;24103;42.454;27.400;2023-06-22T08:43:02;100817.22;;;35.01;29.94
38303;BME280;24103;42.454;27.400;2023-06-22T08:45:27;100805.50;;;34.77;30.04
38303;BME280;24103;42.454;27.400;2023-06-22T08:47:53;100817.69;;;34.57;31.00
38303;BME280;24103;42.454;27.400;2023-06-22T08:50:18;100810.47;;;34.39;31.71
38303;BME280;24103;42.454;27.400;2023-06-22T08:52:44;100804.72;;;33.70;32.14
38303;BME280;24103;42.454;27.400;2023-06-22T08:55:11;100815.53;;;33.65;32.67
38303;BME280;24103;42.454;27.400;2023-06-22T08:57:37;100824.75;;;33.40;33.01
38303;BME280;24103;42.454;27.400;2023-06-22T09:00:08;100821.63;;;33.06;33.78
38303;BME280;24103;42.454;27.400;2023-06-22T09:02:46;100816.66;;;32.66;34.17
38303;BME280;24103;42.454;27.400;2023-06-22T09:05:12;100826.22;;;32.94;34.43
38303;BME280;24103;42.454;27.400;2023-06-22T09:07:38;100822.72;;;33.05;34.32
38303;BME280;24103;42.454;27.400;2023-06-22T09:10:04;100834.41;;;32.57;35.14
38303;BME280;24103;42.454;27.400;2023-06-22T09:12:30;100828.72;;;32.40;35.61
38303;BME280;24103;42.454;27.400;2023-06-22T09:14:56;100846.28;;;32.50;35.58
38303;BME280;24103;42.454;27.400;2023-06-22T09:17:23;100836.31;;;32.19;36.08
38303;BME280;24103;42.454;27.400;2023-06-22T09:19:50;100836.97;;;32.14;35.40
38303;BME280;24103;42.454;27.400;2023-06-22T09:22:16;100845.53;;;31.93;36.26
38303;BME280;24103;42.454;27.400;2023-06-22T09:24:41;100845.19;;;31.83;36.71
38303;BME280;24103;42.454;27.400;2023-06-22T09:27:07;100857.50;;;31.67;37.59
38303;BME280;24103;42.454;27.400;2023-06-22T09:29:32;100860.56;;;31.45;38.31
38303;BME280;24103;42.454;27.400;2023-06-22T09:32:01;100868.94;;;31.57;38.65
38303;BME280;24103;42.454;27.400;2023-06-22T09:34:28;100861.16;;;31.54;38.22
38303;BME280;24103;42.454;27.400;2023-06-22T09:36:57;100863.91;;;31.47;38.74
38303;BME280;24103;42.454;27.400;2023-06-22T09:39:22;100857.63;;;31.47;38.60
38303;BME280;24103;42.454;27.400;2023-06-22T09:41:48;100850.78;;;31.31;38.68
38303;BME280;24103;42.454;27.400;2023-06-22T09:44:14;100850.72;;;31.37;38.32
38303;BME280;24103;42.454;27.400;2023-06-22T09:46:39;100847.09;;;31.50;38.21
38303;BME280;24103;42.454;27.400;2023-06-22T09:49:05;100850.25;;;31.54;38.69
38303;BME280;24103;42.454;27.400;2023-06-22T09:51:30;100853.19;;;31.52;39.20
38303;BME280;24103;42.454;27.400;2023-06-22T09:53:56;100870.88;;;31.36;39.09
38303;BME280;24103;42.454;27.400;2023-06-22T09:56:21;100866.69;;;30.88;41.12
38303;BME280;24103;42.454;27.400;2023-06-22T09:58:47;100885.94;;;31.14;40.83
38303;BME280;24103;42.454;27.400;2023-06-22T10:01:16;100884.22;;;31.19;41.64
38303;BME280;24103;42.454;27.400;2023-06-22T10:03:42;100873.94;;;31.15;41.59
38303;BME280;24103;42.454;27.400;2023-06-22T10:06:09;100869.44;;;30.82;42.25
38303;BME280;24103;42.454;27.400;2023-06-22T10:08:35;100874.06;;;30.81;41.77
38303;BME280;24103;42.454;27.400;2023-06-22T10:11:01;100887.75;;;30.61;42.38
38303;BME280;24103;42.454;27.400;2023-06-22T10:13:27;100885.91;;;30.42;42.64
38303;BME280;24103;42.454;27.400;2023-06-22T10:15:53;100895.94;;;30.35;42.02
38303;BME280;24103;42.454;27.400;2023-06-22T10:18:18;100869.34;;;30.23;42.45
38303;BME280;24103;42.454;27.400;2023-06-22T10:20:48;100888.19;;;30.31;42.37
38303;BME280;24103;42.454;27.400;2023-06-22T10:23:16;100892.81;;;30.51;42.49
38303;BME280;24103;42.454;27.400;2023-06-22T10:25:42;100890.09;;;30.44;42.69
38303;BME280;24103;42.454;27.400;2023-06-22T10:28:07;100887.78;;;30.28;42.91
38303;BME280;24103;42.454;27.400;2023-06-22T10:30:33;100889.44;;;30.02;43.77
38303;BME280;24103;42.454;27.400;2023-06-22T10:36:22;100881.28;;;30.09;42.76
38303;BME280;24103;42.454;27.400;2023-06-22T10:42:09;100878.53;;;30.16;42.67
38303;BME280;24103;42.454;27.400;2023-06-22T10:44:35;100876.66;;;30.29;42.83
38303;BME280;24103;42.454;27.400;2023-06-22T10:47:00;100874.59;;;30.38;42.57
38303;BME280;24103;42.454;27.400;2023-06-22T10:49:26;100880.22;;;30.30;42.69
38303;BME280;24103;42.454;27.400;2023-06-22T10:51:55;100891.53;;;30.33;43.21
38303;BME280;24103;42.454;27.400;2023-06-22T10:55:29;100864.06;;;30.28;43.55
38303;BME280;24103;42.454;27.400;2023-06-22T10:57:56;100870.59;;;30.54;43.20
38303;BME280;24103;42.454;27.400;2023-06-22T11:00:22;100869.94;;;30.52;42.67
38303;BME280;24103;42.454;27.400;2023-06-22T11:02:51;100857.16;;;30.53;42.43
38303;BME280;24103;42.454;27.400;2023-06-22T11:05:17;100867.16;;;30.72;42.14
38303;BME280;24103;42.454;27.400;2023-06-22T11:11:04;100864.38;;;30.99;41.08
38303;BME280;24103;42.454;27.400;2023-06-22T11:13:30;100863.31;;;31.00;41.54
38303;BME280;24103;42.454;27.400;2023-06-22T11:15:57;100861.00;;;30.90;41.67
38303;BME280;24103;42.454;27.400;2023-06-22T11:18:23;100862.53;;;30.79;41.71
38303;BME280;24103;42.454;27.400;2023-06-22T11:20:48;100859.69;;;30.54;42.07
38303;BME280;24103;42.454;27.400;2023-06-22T11:23:14;100871.59;;;30.60;42.09
38303;BME280;24103;42.454;27.400;2023-06-22T11:25:40;100869.91;;;30.65;41.33
38303;BME280;24103;42.454;27.400;2023-06-22T11:28:08;100864.91;;;30.49;42.09
38303;BME280;24103;42.454;27.400;2023-06-22T11:30:34;100862.19;;;30.56;42.42
38303;BME280;24103;42.454;27.400;2023-06-22T11:33:00;100863.03;;;30.49;41.55
38303;BME280;24103;42.454;27.400;2023-06-22T11:35:26;100856.53;;;30.37;42.26
38303;BME280;24103;42.454;27.400;2023-06-22T11:37:51;100859.00;;;30.59;42.23
38303;BME280;24103;42.454;27.400;2023-06-22T11:40:18;100858.75;;;30.74;41.84
38303;BME280;24103;42.454;27.400;2023-06-22T11:42:44;100850.13;;;30.83;41.82
38303;BME280;24103;42.454;27.400;2023-06-22T11:45:09;100860.97;;;31.03;41.17
38303;BME280;24103;42.454;27.400;2023-06-22T11:47:35;100849.06;;;30.98;41.83
38303;BME280;24103;42.454;27.400;2023-06-22T11:50:02;100851.34;;;30.94;41.50
38303;BME280;24103;42.454;27.400;2023-06-22T11:52:28;100858.72;;;31.00;41.95
38303;BME280;24103;42.454;27.400;2023-06-22T11:54:53;100854.94;;;30.88;41.05
38303;BME280;24103;42.454;27.400;2023-06-22T11:57:22;100862.16;;;30.69;41.08
38303;BME280;24103;42.454;27.400;2023-06-22T11:59:47;100858.59;;;30.62;41.72
38303;BME280;24103;42.454;27.400;2023-06-22T12:02:13;100858.78;;;30.67;42.00
38303;BME280;24103;42.454;27.400;2023-06-22T12:04:38;100850.53;;;30.80;42.12
38303;BME280;24103;42.454;27.400;2023-06-22T12:07:04;100855.31;;;31.05;41.39
38303;BME280;24103;42.454;27.400;2023-06-22T12:09:29;100843.53;;;31.11;41.82
38303;BME280;24103;42.454;27.400;2023-06-22T12:11:55;100848.38;;;31.09;40.64
38303;BME280;24103;42.454;27.400;2023-06-22T12:14:21;100856.66;;;31.28;40.62
38303;BME280;24103;42.454;27.400;2023-06-22T12:16:47;100848.84;;;30.99;40.18
38303;BME280;24103;42.454;27.400;2023-06-22T12:19:13;100849.97;;;30.72;40.58
38303;BME280;24103;42.454;27.400;2023-06-22T12:21:38;100856.13;;;30.40;41.28
38303;BME280;24103;42.454;27.400;2023-06-22T12:24:06;100852.34;;;30.48;40.28
38303;BME280;24103;42.454;27.400;2023-06-22T12:26:31;100844.78;;;30.43;40.66
38303;BME280;24103;42.454;27.400;2023-06-22T12:28:57;100821.50;;;30.27;40.65
38303;BME280;24103;42.454;27.400;2023-06-22T12:31:24;100835.78;;;30.23;40.54
38303;BME280;24103;42.454;27.400;2023-06-22T12:33:50;100839.53;;;30.48;40.04
38303;BME280;24103;42.454;27.400;2023-06-22T12:36:16;100838.91;;;30.33;40.58
38303;BME280;24103;42.454;27.400;2023-06-22T12:38:41;100842.69;;;30.32;40.88
38303;BME280;24103;42.454;27.400;2023-06-22T12:41:07;100850.44;;;30.48;40.40
38303;BME280;24103;42.454;27.400;2023-06-22T12:43:32;100852.56;;;30.46;40.62
38303;BME280;24103;42.454;27.400;2023-06-22T12:45:58;100845.41;;;30.52;40.85
38303;BME280;24103;42.454;27.400;2023-06-22T12:48:28;100836.38;;;30.58;40.56
38303;BME280;24103;42.454;27.400;2023-06-22T12:50:54;100844.53;;;30.65;40.02
38303;BME280;24103;42.454;27.400;2023-06-22T12:53:19;100841.78;;;30.72;40.45
38303;BME280;24103;42.454;27.400;2023-06-22T12:55:45;100847.66;;;30.68;40.06
38303;BME280;24103;42.454;27.400;2023-06-22T12:58:11;100846.28;;;30.46;39.95
38303;BME280;24103;42.454;27.400;2023-06-22T13:00:38;100865.09;;;30.34;39.74
38303;BME280;24103;42.454;27.400;2023-06-22T13:03:04;100844.38;;;30.33;39.95